createdAt,value
2018-08-22T00:00:57.530Z,0
2018-08-22T00:01:57.003Z,0
2018-08-22T00:02:57.513Z,0
2018-08-22T00:03:57.502Z,0
2018-08-22T00:04:57.509Z,0
2018-08-22T00:05:57.498Z,0
2018-08-22T00:06:57.494Z,0
2018-08-22T00:07:57.488Z,0
2018-08-22T00:08:57.647Z,0
2018-08-22T00:09:57.480Z,0
2018-08-22T00:10:57.469Z,0
2018-08-22T00:11:57.207Z,0
2018-08-22T00:12:57.206Z,0
2018-08-22T00:13:57.462Z,0
2018-08-22T00:14:57.455Z,0
2018-08-22T00:15:57.197Z,0
2018-08-22T00:16:57.192Z,0
2018-08-22T00:17:56.922Z,0
2018-08-22T00:18:57.173Z,0
2018-08-22T00:19:56.916Z,0
2018-08-22T00:20:57.420Z,0
2018-08-22T00:21:57.421Z,0
2018-08-22T00:22:57.412Z,0
2018-08-22T00:23:57.150Z,0
2018-08-22T00:24:57.403Z,0
2018-08-22T00:25:57.392Z,0
2018-08-22T00:26:57.486Z,0
2018-08-22T00:27:57.385Z,0
2018-08-22T00:28:57.380Z,0
2018-08-22T00:29:57.379Z,0
2018-08-22T00:30:57.112Z,0
2018-08-22T00:31:57.109Z,0
2018-08-22T00:32:57.366Z,0
2018-08-22T00:33:57.096Z,0
2018-08-22T00:34:57.355Z,0
2018-08-22T00:35:57.088Z,0
2018-08-22T00:36:57.083Z,0
2018-08-22T00:37:57.347Z,0
2018-08-22T00:38:57.076Z,0
2018-08-22T00:39:57.321Z,0
2018-08-22T00:40:57.321Z,0
2018-08-22T00:41:57.066Z,0
2018-08-22T00:42:57.305Z,0
2018-08-22T00:43:57.046Z,0
2018-08-22T00:44:57.041Z,0
2018-08-22T00:45:56.783Z,0
2018-08-22T00:46:57.293Z,0
2018-08-22T00:47:57.291Z,0
2018-08-22T00:48:57.283Z,0
2018-08-22T00:49:57.270Z,0
2018-08-22T00:50:57.014Z,0
2018-08-22T00:51:56.747Z,0
2018-08-22T00:52:57.254Z,0
2018-08-22T00:53:56.992Z,0
2018-08-22T00:54:57.250Z,0
2018-08-22T00:55:57.241Z,0
2018-08-22T00:56:56.978Z,0
2018-08-22T00:57:57.043Z,0
2018-08-22T00:58:56.997Z,0
2018-08-22T00:59:56.961Z,0
2018-08-22T01:00:56.964Z,0
2018-08-22T01:01:57.218Z,0
2018-08-22T01:02:56.949Z,0
2018-08-22T01:03:57.197Z,0
2018-08-22T01:04:57.191Z,0
2018-08-22T01:05:57.186Z,0
2018-08-22T01:06:57.192Z,0
2018-08-22T01:07:56.918Z,0
2018-08-22T01:08:57.172Z,0
2018-08-22T01:09:56.913Z,0
2018-08-22T01:10:57.208Z,0
2018-08-22T01:11:56.646Z,0
2018-08-22T01:12:57.165Z,0
2018-08-22T01:13:57.148Z,0
2018-08-22T01:14:56.886Z,0
2018-08-22T01:15:56.878Z,0
2018-08-22T01:16:57.131Z,0
2018-08-22T01:17:56.901Z,0
2018-08-22T01:18:57.136Z,0
2018-08-22T01:19:56.859Z,0
2018-08-22T01:20:57.106Z,0
2018-08-22T01:21:56.849Z,0
2018-08-22T01:22:57.096Z,0
2018-08-22T01:23:56.843Z,0
2018-08-22T01:24:56.833Z,0
2018-08-22T01:25:56.824Z,0
2018-08-22T01:26:56.830Z,0
2018-08-22T01:27:57.082Z,0
2018-08-22T01:28:57.068Z,0
2018-08-22T01:29:57.068Z,0
2018-08-22T01:30:57.057Z,0
2018-08-22T01:31:56.808Z,0
2018-08-22T01:32:57.058Z,0
2018-08-22T01:33:56.528Z,0
2018-08-22T01:34:57.037Z,0
2018-08-22T01:35:56.781Z,0
2018-08-22T01:36:57.029Z,0
2018-08-22T01:37:56.771Z,0
2018-08-22T01:38:56.761Z,0
2018-08-22T01:39:56.756Z,0
2018-08-22T01:40:56.496Z,0
2018-08-22T01:41:56.488Z,0
2018-08-22T01:42:56.740Z,0
2018-08-22T01:43:56.739Z,0
2018-08-22T01:44:56.725Z,0
2018-08-22T01:45:56.980Z,0
2018-08-22T01:46:56.971Z,0
2018-08-22T01:47:56.981Z,0
2018-08-22T01:48:56.711Z,0
2018-08-22T01:49:56.714Z,0
2018-08-22T01:50:56.693Z,0
2018-08-22T01:51:56.175Z,0
2018-08-22T01:52:56.689Z,0
2018-08-22T01:53:56.939Z,0
2018-08-22T01:54:56.935Z,0
2018-08-22T01:55:56.666Z,0
2018-08-22T01:56:56.665Z,0
2018-08-22T01:57:56.915Z,0
2018-08-22T01:58:57.374Z,0
2018-08-22T01:59:56.650Z,0
2018-08-22T02:00:56.904Z,0
2018-08-22T02:01:56.639Z,0
2018-08-22T02:02:56.893Z,0
2018-08-22T02:03:56.890Z,0
2018-08-22T02:04:56.882Z,0
2018-08-22T02:05:56.871Z,0
2018-08-22T02:06:56.863Z,0
2018-08-22T02:07:56.860Z,0
2018-08-22T02:08:57.408Z,0
2018-08-22T02:09:56.594Z,0
2018-08-22T02:10:56.588Z,0
2018-08-22T02:11:56.833Z,0
2018-08-22T02:12:56.831Z,0
2018-08-22T02:13:56.833Z,0
2018-08-22T02:14:56.569Z,0
2018-08-22T02:15:56.812Z,0
2018-08-22T02:16:56.549Z,0
2018-08-22T02:17:56.544Z,0
2018-08-22T02:18:56.798Z,0
2018-08-22T02:19:56.537Z,0
2018-08-22T02:20:56.789Z,0
2018-08-22T02:21:56.776Z,0
2018-08-22T02:22:56.517Z,0
2018-08-22T02:23:56.763Z,0
2018-08-22T02:24:56.502Z,0
2018-08-22T02:25:56.753Z,0
2018-08-22T02:26:56.488Z,0
2018-08-22T02:27:56.485Z,0
2018-08-22T02:28:56.741Z,0
2018-08-22T02:29:56.730Z,0
2018-08-22T02:30:56.734Z,0
2018-08-22T02:31:56.723Z,0
2018-08-22T02:32:56.452Z,0
2018-08-22T02:33:56.453Z,0
2018-08-22T02:34:56.705Z,0
2018-08-22T02:35:55.931Z,0
2018-08-22T02:36:56.688Z,0
2018-08-22T02:37:56.431Z,0
2018-08-22T02:38:56.170Z,0
2018-08-22T02:39:56.680Z,0
2018-08-22T02:40:56.674Z,0
2018-08-22T02:41:56.710Z,0
2018-08-22T02:42:56.656Z,0
2018-08-22T02:43:56.646Z,0
2018-08-22T02:44:56.650Z,0
2018-08-22T02:45:56.637Z,0
2018-08-22T02:46:55.859Z,0
2018-08-22T02:47:56.364Z,0
2018-08-22T02:48:56.357Z,0
2018-08-22T02:49:56.606Z,0
2018-08-22T02:50:56.599Z,0
2018-08-22T02:51:56.337Z,0
2018-08-22T02:52:56.331Z,0
2018-08-22T02:53:56.329Z,0
2018-08-22T02:54:56.321Z,0
2018-08-22T02:55:56.058Z,0
2018-08-22T02:56:56.315Z,0
2018-08-22T02:57:56.564Z,0
2018-08-22T02:58:56.555Z,0
2018-08-22T02:59:56.550Z,0
2018-08-22T03:00:56.283Z,0
2018-08-22T03:01:56.534Z,0
2018-08-22T03:02:56.525Z,0
2018-08-22T03:03:56.526Z,0
2018-08-22T03:04:56.262Z,0
2018-08-22T03:05:56.253Z,0
2018-08-22T03:06:55.996Z,0
2018-08-22T03:07:56.495Z,0
2018-08-22T03:08:56.493Z,0
2018-08-22T03:09:56.489Z,0
2018-08-22T03:10:56.219Z,0
2018-08-22T03:11:56.216Z,0
2018-08-22T03:12:56.464Z,0
2018-08-22T03:13:56.202Z,0
2018-08-22T03:14:56.453Z,0
2018-08-22T03:15:56.189Z,0
2018-08-22T03:16:56.184Z,0
2018-08-22T03:17:56.434Z,0
2018-08-22T03:18:56.426Z,0
2018-08-22T03:19:56.421Z,0
2018-08-22T03:20:56.418Z,0
2018-08-22T03:21:56.151Z,0
2018-08-22T03:22:55.635Z,0
2018-08-22T03:23:56.431Z,0
2018-08-22T03:24:56.143Z,0
2018-08-22T03:25:56.142Z,0
2018-08-22T03:26:56.119Z,0
2018-08-22T03:27:56.377Z,0
2018-08-22T03:28:56.111Z,0
2018-08-22T03:29:56.370Z,0
2018-08-22T03:30:56.356Z,0
2018-08-22T03:31:56.344Z,0
2018-08-22T03:32:56.081Z,0
2018-08-22T03:33:56.330Z,0
2018-08-22T03:34:56.062Z,0
2018-08-22T03:35:56.314Z,4
2018-08-22T03:36:55.801Z,4
2018-08-22T03:37:56.298Z,0
2018-08-22T03:38:56.043Z,0
2018-08-22T03:39:56.294Z,4
2018-08-22T03:40:56.283Z,0
2018-08-22T03:41:56.027Z,4
2018-08-22T03:42:56.272Z,4
2018-08-22T03:43:56.321Z,8
2018-08-22T03:44:56.258Z,8
2018-08-22T03:45:55.993Z,8
2018-08-22T03:46:56.250Z,12
2018-08-22T03:47:56.240Z,12
2018-08-22T03:48:55.717Z,16
2018-08-22T03:49:56.221Z,16
2018-08-22T03:50:55.705Z,20
2018-08-22T03:51:56.213Z,24
2018-08-22T03:52:56.205Z,28
2018-08-22T03:53:56.203Z,32
2018-08-22T03:54:56.193Z,32
2018-08-22T03:55:55.925Z,40
2018-08-22T03:56:56.175Z,48
2018-08-22T03:57:55.916Z,52
2018-08-22T03:58:56.166Z,60
2018-08-22T03:59:56.152Z,64
2018-08-22T04:00:56.149Z,76
2018-08-22T04:01:56.144Z,84
2018-08-22T04:02:56.138Z,92
2018-08-22T04:03:55.873Z,104
2018-08-22T04:04:56.125Z,112
2018-08-22T04:05:55.856Z,120
2018-08-22T04:06:55.852Z,136
2018-08-22T04:07:55.854Z,148
2018-08-22T04:08:55.838Z,160
2018-08-22T04:09:55.576Z,176
2018-08-22T04:10:55.824Z,188
2018-08-22T04:11:55.822Z,204
2018-08-22T04:12:56.062Z,220
2018-08-22T04:13:56.062Z,240
2018-08-22T04:14:56.055Z,260
2018-08-22T04:15:56.048Z,280
2018-08-22T04:16:55.790Z,304
2018-08-22T04:17:55.521Z,328
2018-08-22T04:18:56.030Z,352
2018-08-22T04:19:55.763Z,376
2018-08-22T04:20:55.755Z,400
2018-08-22T04:21:56.005Z,428
2018-08-22T04:22:55.743Z,452
2018-08-22T04:23:55.732Z,484
2018-08-22T04:24:55.983Z,520
2018-08-22T04:25:55.976Z,548
2018-08-22T04:26:55.714Z,572
2018-08-22T04:27:55.972Z,600
2018-08-22T04:28:55.704Z,632
2018-08-22T04:29:55.732Z,676
2018-08-22T04:30:56.146Z,716
2018-08-22T04:31:55.945Z,744
2018-08-22T04:32:55.712Z,788
2018-08-22T04:33:55.669Z,828
2018-08-22T04:34:55.917Z,864
2018-08-22T04:35:55.907Z,900
2018-08-22T04:36:55.913Z,920
2018-08-22T04:37:55.647Z,936
2018-08-22T04:38:55.933Z,964
2018-08-22T04:39:55.883Z,1004
2018-08-22T04:40:55.618Z,1048
2018-08-22T04:41:55.610Z,1092
2018-08-22T04:42:55.864Z,1144
2018-08-22T04:43:55.856Z,1192
2018-08-22T04:44:55.848Z,1216
2018-08-22T04:45:55.845Z,1232
2018-08-22T04:46:55.320Z,1280
2018-08-22T04:47:55.841Z,1336
2018-08-22T04:48:55.570Z,1384
2018-08-22T04:49:55.559Z,1440
2018-08-22T04:50:55.809Z,1508
2018-08-22T04:51:55.547Z,1580
2018-08-22T04:52:55.806Z,1632
2018-08-22T04:53:55.536Z,1716
2018-08-22T04:54:55.270Z,1784
2018-08-22T04:55:55.262Z,1828
2018-08-22T04:56:55.513Z,1856
2018-08-22T04:57:55.253Z,1888
2018-08-22T04:58:55.758Z,1888
2018-08-22T04:59:55.491Z,1900
2018-08-22T05:00:55.487Z,1960
2018-08-22T05:01:55.225Z,2048
2018-08-22T05:02:55.479Z,2108
2018-08-22T05:03:55.464Z,2088
2018-08-22T05:04:55.211Z,2044
2018-08-22T05:05:55.509Z,2072
2018-08-22T05:06:55.192Z,2148
2018-08-22T05:07:55.185Z,2164
2018-08-22T05:08:55.691Z,2156
2018-08-22T05:09:55.684Z,2180
2018-08-22T05:10:55.688Z,2200
2018-08-22T05:11:55.418Z,2220
2018-08-22T05:12:55.673Z,2252
2018-08-22T05:13:55.658Z,2328
2018-08-22T05:14:55.141Z,2388
2018-08-22T05:15:55.649Z,2456
2018-08-22T05:16:55.642Z,2516
2018-08-22T05:17:55.635Z,2552
2018-08-22T05:18:55.632Z,2580
2018-08-22T05:19:55.633Z,2604
2018-08-22T05:20:55.639Z,2644
2018-08-22T05:21:55.100Z,2684
2018-08-22T05:22:55.349Z,2708
2018-08-22T05:23:55.342Z,2732
2018-08-22T05:24:55.914Z,2816
2018-08-22T05:25:55.332Z,2900
2018-08-22T05:26:55.328Z,2916
2018-08-22T05:27:55.327Z,2900
2018-08-22T05:28:55.575Z,2900
2018-08-22T05:29:55.309Z,2912
2018-08-22T05:30:55.559Z,2920
2018-08-22T05:31:55.569Z,2944
2018-08-22T05:32:55.550Z,3008
2018-08-22T05:33:55.290Z,3080
2018-08-22T05:34:55.281Z,3136
2018-08-22T05:35:55.019Z,3216
2018-08-22T05:36:55.536Z,3268
2018-08-22T05:37:55.261Z,3312
2018-08-22T05:38:55.508Z,3344
2018-08-22T05:39:55.264Z,3396
2018-08-22T05:40:55.278Z,3444
2018-08-22T05:41:55.505Z,3448
2018-08-22T05:42:55.490Z,3452
2018-08-22T05:43:55.229Z,3444
2018-08-22T05:44:55.475Z,3424
2018-08-22T05:45:55.475Z,3448
2018-08-22T05:46:55.211Z,3464
2018-08-22T05:47:55.470Z,3500
2018-08-22T05:48:55.457Z,3552
2018-08-22T05:49:55.460Z,3588
2018-08-22T05:50:55.449Z,3632
2018-08-22T05:51:55.447Z,3672
2018-08-22T05:52:55.181Z,3712
2018-08-22T05:53:55.169Z,3776
2018-08-22T05:54:55.168Z,3832
2018-08-22T05:55:55.164Z,3864
2018-08-22T05:56:55.415Z,3908
2018-08-22T05:57:55.411Z,3972
2018-08-22T05:58:55.402Z,4012
2018-08-22T05:59:55.403Z,4072
2018-08-22T06:00:55.395Z,4208
2018-08-22T06:01:55.389Z,4252
2018-08-22T06:02:54.610Z,4288
2018-08-22T06:03:55.379Z,4324
2018-08-22T06:04:54.857Z,4360
2018-08-22T06:05:55.107Z,4372
2018-08-22T06:06:55.365Z,4396
2018-08-22T06:07:55.358Z,4384
2018-08-22T06:08:55.347Z,4376
2018-08-22T06:09:55.090Z,4384
2018-08-22T06:10:55.081Z,4416
2018-08-22T06:11:55.336Z,4460
2018-08-22T06:12:55.328Z,4492
2018-08-22T06:13:55.070Z,4516
2018-08-22T06:14:55.325Z,4536
2018-08-22T06:15:55.490Z,4568
2018-08-22T06:16:55.313Z,4584
2018-08-22T06:17:54.790Z,4600
2018-08-22T06:18:55.297Z,4600
2018-08-22T06:19:55.294Z,4592
2018-08-22T06:20:55.290Z,4596
2018-08-22T06:21:55.037Z,4620
2018-08-22T06:22:55.288Z,4644
2018-08-22T06:23:55.016Z,4652
2018-08-22T06:24:55.018Z,4652
2018-08-22T06:25:55.270Z,4648
2018-08-22T06:26:55.257Z,4640
2018-08-22T06:27:55.259Z,4644
2018-08-22T06:28:55.255Z,4648
2018-08-22T06:29:55.257Z,4656
2018-08-22T06:30:54.989Z,4664
2018-08-22T06:31:55.237Z,4676
2018-08-22T06:32:55.295Z,4692
2018-08-22T06:33:54.985Z,4704
2018-08-22T06:34:55.227Z,4712
2018-08-22T06:35:55.219Z,4724
2018-08-22T06:36:54.967Z,4724
2018-08-22T06:37:54.698Z,4724
2018-08-22T06:38:55.015Z,4724
2018-08-22T06:39:55.211Z,4736
2018-08-22T06:40:55.203Z,4756
2018-08-22T06:41:54.679Z,4776
2018-08-22T06:42:55.191Z,4868
2018-08-22T06:43:55.190Z,4940
2018-08-22T06:44:54.921Z,5004
2018-08-22T06:45:55.177Z,5144
2018-08-22T06:46:54.925Z,5660
2018-08-22T06:47:54.916Z,5896
2018-08-22T06:48:54.910Z,6680
2018-08-22T06:49:55.169Z,9992
2018-08-22T06:50:54.902Z,10992
2018-08-22T06:51:54.896Z,10492
2018-08-22T06:52:54.907Z,13800
2018-08-22T06:53:55.162Z,15968
2018-08-22T06:54:54.627Z,16576
2018-08-22T06:55:55.142Z,19392
2018-08-22T06:56:54.878Z,22656
2018-08-22T06:57:54.623Z,29120
2018-08-22T06:58:54.623Z,32864
2018-08-22T06:59:54.614Z,34272
2018-08-22T07:00:54.879Z,37120
2018-08-22T07:01:54.872Z,36512
2018-08-22T07:02:55.123Z,33728
2018-08-22T07:03:54.617Z,31520
2018-08-22T07:04:55.126Z,28608
2018-08-22T07:05:54.861Z,30208
2018-08-22T07:06:54.863Z,30528
2018-08-22T07:07:55.262Z,30368
2018-08-22T07:08:54.864Z,33504
2018-08-22T07:09:54.865Z,32352
2018-08-22T07:10:55.122Z,29088
2018-08-22T07:11:54.863Z,29664
2018-08-22T07:12:54.874Z,30400
2018-08-22T07:13:54.899Z,28160
2018-08-22T07:14:55.130Z,26912
2018-08-22T07:15:54.614Z,23264
2018-08-22T07:16:54.882Z,13336
2018-08-22T07:17:55.133Z,7172
2018-08-22T07:18:55.140Z,6568
2018-08-22T07:19:55.155Z,6228
2018-08-22T07:20:55.442Z,6000
2018-08-22T07:21:55.146Z,5836
2018-08-22T07:22:55.164Z,5720
2018-08-22T07:23:54.900Z,5648
2018-08-22T07:24:55.163Z,5584
2018-08-22T07:25:54.910Z,5540
2018-08-22T07:26:55.162Z,5496
2018-08-22T07:27:54.917Z,5452
2018-08-22T07:28:55.175Z,5424
2018-08-22T07:29:55.223Z,5416
2018-08-22T07:30:54.933Z,5408
2018-08-22T07:31:54.678Z,5400
2018-08-22T07:32:54.945Z,5400
2018-08-22T07:33:55.193Z,5396
2018-08-22T07:34:55.205Z,5396
2018-08-22T07:35:55.380Z,5388
2018-08-22T07:36:55.205Z,5384
2018-08-22T07:37:54.700Z,5384
2018-08-22T07:38:54.723Z,5380
2018-08-22T07:39:55.224Z,5372
2018-08-22T07:40:54.713Z,5372
2018-08-22T07:41:54.974Z,5368
2018-08-22T07:42:55.237Z,5368
2018-08-22T07:43:55.281Z,5372
2018-08-22T07:44:55.246Z,5356
2018-08-22T07:45:54.998Z,5340
2018-08-22T07:46:55.003Z,5320
2018-08-22T07:47:55.264Z,5300
2018-08-22T07:48:55.290Z,5296
2018-08-22T07:49:55.259Z,5300
2018-08-22T07:50:55.276Z,5300
2018-08-22T07:51:55.272Z,5300
2018-08-22T07:52:55.013Z,5304
2018-08-22T07:53:55.275Z,5296
2018-08-22T07:54:55.279Z,5292
2018-08-22T07:55:55.282Z,5300
2018-08-22T07:56:55.041Z,5300
2018-08-22T07:57:55.038Z,5304
2018-08-22T07:58:55.030Z,5312
2018-08-22T07:59:55.037Z,5316
2018-08-22T08:00:55.041Z,5316
2018-08-22T08:01:55.980Z,5312
2018-08-22T08:02:55.319Z,5324
2018-08-22T08:03:55.314Z,5320
2018-08-22T08:04:55.048Z,5324
2018-08-22T08:05:55.560Z,5328
2018-08-22T08:06:55.362Z,5336
2018-08-22T08:07:55.321Z,5348
2018-08-22T08:08:54.810Z,5364
2018-08-22T08:09:55.063Z,5372
2018-08-22T08:10:55.548Z,5364
2018-08-22T08:11:55.118Z,5356
2018-08-22T08:12:54.814Z,5336
2018-08-22T08:13:55.107Z,5332
2018-08-22T08:14:55.087Z,5328
2018-08-22T08:15:55.334Z,5332
2018-08-22T08:16:55.091Z,5332
2018-08-22T08:17:54.828Z,5332
2018-08-22T08:18:55.342Z,5320
2018-08-22T08:19:55.083Z,5308
2018-08-22T08:20:55.347Z,5292
2018-08-22T08:21:55.107Z,5280
2018-08-22T08:22:55.093Z,5276
2018-08-22T08:23:55.094Z,5268
2018-08-22T08:24:55.099Z,5256
2018-08-22T08:25:55.366Z,5248
2018-08-22T08:26:55.424Z,5252
2018-08-22T08:27:55.105Z,5256
2018-08-22T08:28:54.848Z,5268
2018-08-22T08:29:54.848Z,5280
2018-08-22T08:30:55.368Z,5288
2018-08-22T08:31:55.370Z,5288
2018-08-22T08:32:55.378Z,5280
2018-08-22T08:33:55.115Z,5268
2018-08-22T08:34:55.381Z,5252
2018-08-22T08:35:55.685Z,5240
2018-08-22T08:36:55.459Z,5236
2018-08-22T08:37:55.132Z,5224
2018-08-22T08:38:55.381Z,5216
2018-08-22T08:39:55.130Z,5212
2018-08-22T08:40:55.391Z,5204
2018-08-22T08:41:55.669Z,5200
2018-08-22T08:42:55.138Z,5200
2018-08-22T08:43:55.391Z,5196
2018-08-22T08:44:55.401Z,5188
2018-08-22T08:45:55.405Z,5188
2018-08-22T08:46:54.889Z,5180
2018-08-22T08:47:55.478Z,5180
2018-08-22T08:48:55.147Z,5176
2018-08-22T08:49:55.223Z,5180
2018-08-22T08:50:55.165Z,5188
2018-08-22T08:51:54.907Z,5192
2018-08-22T08:52:55.428Z,5192
2018-08-22T08:53:54.905Z,5192
2018-08-22T08:54:55.416Z,5180
2018-08-22T08:55:55.461Z,5180
2018-08-22T08:56:54.908Z,5176
2018-08-22T08:57:55.171Z,5176
2018-08-22T08:58:55.428Z,5172
2018-08-22T08:59:55.182Z,5164
2018-08-22T09:00:55.183Z,5152
2018-08-22T09:01:54.930Z,5152
2018-08-22T09:02:55.187Z,5144
2018-08-22T09:03:55.887Z,5140
2018-08-22T09:04:55.493Z,5120
2018-08-22T09:05:55.451Z,5108
2018-08-22T09:06:55.191Z,5096
2018-08-22T09:07:55.441Z,5080
2018-08-22T09:08:55.477Z,5072
2018-08-22T09:09:55.456Z,5064
2018-08-22T09:10:55.874Z,5064
2018-08-22T09:11:55.464Z,5060
2018-08-22T09:12:55.465Z,5052
2018-08-22T09:13:55.473Z,5056
2018-08-22T09:15:55.484Z,5044
2018-08-22T09:16:55.218Z,5036
2018-08-22T09:17:55.236Z,5020
2018-08-22T09:18:55.477Z,4996
2018-08-22T09:19:54.966Z,4984
2018-08-22T09:20:55.253Z,4968
2018-08-22T09:21:55.492Z,4960
2018-08-22T09:22:55.226Z,4952
2018-08-22T09:23:55.552Z,4944
2018-08-22T09:24:55.233Z,4932
2018-08-22T09:25:54.979Z,4936
2018-08-22T09:26:55.500Z,4928
2018-08-22T09:27:55.241Z,4924
2018-08-22T09:28:55.500Z,4944
2018-08-22T09:29:55.015Z,4984
2018-08-22T09:30:55.255Z,5008
2018-08-22T09:31:55.254Z,5048
2018-08-22T09:32:55.509Z,4988
2018-08-22T09:33:55.675Z,4884
2018-08-22T09:34:55.272Z,4812
2018-08-22T09:35:55.612Z,4812
2018-08-22T09:36:55.575Z,4864
2018-08-22T09:37:55.010Z,4900
2018-08-22T09:38:55.536Z,4972
2018-08-22T09:39:56.084Z,5108
2018-08-22T09:40:55.278Z,5156
2018-08-22T09:41:55.538Z,5120
2018-08-22T09:42:55.023Z,5064
2018-08-22T09:43:55.029Z,5004
2018-08-22T09:44:55.551Z,5020
2018-08-22T09:45:55.302Z,5068
2018-08-22T09:46:55.906Z,4948
2018-08-22T09:47:54.788Z,4784
2018-08-22T09:48:55.614Z,4692
2018-08-22T09:49:55.362Z,4672
2018-08-22T09:50:55.209Z,4664
2018-08-22T09:51:55.570Z,4708
2018-08-22T09:52:55.569Z,4784
2018-08-22T09:53:55.568Z,4856
2018-08-22T09:54:55.578Z,4920
2018-08-22T09:55:55.581Z,4972
2018-08-22T09:56:55.333Z,4984
2018-08-22T09:57:55.586Z,4924
2018-08-22T09:58:55.590Z,4772
2018-08-22T09:59:55.727Z,4780
2018-08-22T10:00:55.563Z,4904
2018-08-22T10:01:55.601Z,4912
2018-08-22T10:02:55.599Z,4852
2018-08-22T10:03:55.605Z,4880
2018-08-22T10:04:55.350Z,4820
2018-08-22T10:05:55.610Z,4792
2018-08-22T10:06:56.192Z,4796
2018-08-22T10:07:55.366Z,4836
2018-08-22T10:08:55.618Z,5068
2018-08-22T10:09:55.525Z,5160
2018-08-22T10:10:55.624Z,5096
2018-08-22T10:11:55.748Z,5020
2018-08-22T10:12:55.666Z,4860
2018-08-22T10:13:55.629Z,4756
2018-08-22T10:14:55.702Z,4204
2018-08-22T10:15:55.640Z,4340
2018-08-22T10:16:55.141Z,4012
2018-08-22T10:17:55.392Z,3900
2018-08-22T10:18:55.436Z,3884
2018-08-22T10:19:55.660Z,3912
2018-08-22T10:20:55.405Z,4464
2018-08-22T10:21:55.659Z,4504
2018-08-22T10:22:55.667Z,4292
2018-08-22T10:23:55.410Z,4220
2018-08-22T10:24:55.670Z,3940
2018-08-22T10:25:55.419Z,3972
2018-08-22T10:26:55.758Z,4428
2018-08-22T10:27:55.476Z,4324
2018-08-22T10:28:55.683Z,5072
2018-08-22T10:29:55.685Z,5072
2018-08-22T10:30:55.434Z,5576
2018-08-22T10:31:55.691Z,6068
2018-08-22T10:32:56.038Z,5908
2018-08-22T10:33:55.703Z,5424
2018-08-22T10:34:55.449Z,5580
2018-08-22T10:35:55.703Z,5016
2018-08-22T10:36:55.707Z,5080
2018-08-22T10:37:55.462Z,4936
2018-08-22T10:38:55.716Z,4788
2018-08-22T10:39:55.760Z,4892
2018-08-22T10:40:55.459Z,4500
2018-08-22T10:41:55.773Z,4792
2018-08-22T10:42:55.723Z,4712
2018-08-22T10:43:55.214Z,4296
2018-08-22T10:44:55.470Z,3992
2018-08-22T10:45:55.489Z,4104
2018-08-22T10:46:55.733Z,4444
2018-08-22T10:47:55.822Z,4800
2018-08-22T10:48:55.792Z,5524
2018-08-22T10:49:55.487Z,6000
2018-08-22T10:50:55.233Z,6168
2018-08-22T10:51:55.493Z,5896
2018-08-22T10:52:55.751Z,5904
2018-08-22T10:53:55.643Z,5636
2018-08-22T10:54:55.760Z,5884
2018-08-22T10:55:55.764Z,6240
2018-08-22T10:56:55.508Z,6656
2018-08-22T10:57:55.507Z,7156
2018-08-22T10:58:55.513Z,7892
2018-08-22T10:59:55.522Z,8116
2018-08-22T11:00:55.527Z,7688
2018-08-22T11:01:55.984Z,7492
2018-08-22T11:02:55.270Z,7444
2018-08-22T11:03:55.792Z,7600
2018-08-22T11:04:55.277Z,6928
2018-08-22T11:05:55.796Z,6440
2018-08-22T11:06:55.799Z,6128
2018-08-22T11:07:55.538Z,5700
2018-08-22T11:08:55.801Z,5448
2018-08-22T11:09:55.971Z,5336
2018-08-22T11:10:55.551Z,6180
2018-08-22T11:11:55.554Z,7272
2018-08-22T11:12:55.306Z,7064
2018-08-22T11:13:55.562Z,7264
2018-08-22T11:14:55.602Z,7404
2018-08-22T11:15:56.591Z,7772
2018-08-22T11:16:55.573Z,8160
2018-08-22T11:17:55.834Z,7992
2018-08-22T11:18:55.829Z,8144
2018-08-22T11:19:55.832Z,8372
2018-08-22T11:20:55.843Z,8580
2018-08-22T11:21:55.587Z,9004
2018-08-22T11:22:55.848Z,9148
2018-08-22T11:23:55.850Z,8560
2018-08-22T11:24:55.854Z,8564
2018-08-22T11:25:55.596Z,9080
2018-08-22T11:26:55.340Z,9084
2018-08-22T11:27:55.627Z,8892
2018-08-22T11:28:55.877Z,8612
2018-08-22T11:29:55.867Z,8572
2018-08-22T11:30:55.866Z,8480
2018-08-22T11:31:55.874Z,8120
2018-08-22T11:32:55.618Z,8540
2018-08-22T11:33:55.621Z,8984
2018-08-22T11:34:55.887Z,9032
2018-08-22T11:35:55.637Z,9420
2018-08-22T11:36:55.634Z,9352
2018-08-22T11:37:55.898Z,8964
2018-08-22T11:38:55.897Z,8764
2018-08-22T11:39:55.907Z,8016
2018-08-22T11:40:55.654Z,7356
2018-08-22T11:41:55.911Z,7072
2018-08-22T11:42:55.914Z,7436
2018-08-22T11:43:55.919Z,8636
2018-08-22T11:44:55.672Z,9196
2018-08-22T11:45:55.669Z,9180
2018-08-22T11:46:55.521Z,8724
2018-08-22T11:47:55.680Z,7836
2018-08-22T11:48:55.685Z,7352
2018-08-22T11:49:55.687Z,7740
2018-08-22T11:50:55.952Z,8120
2018-08-22T11:51:55.688Z,8636
2018-08-22T11:52:55.952Z,9180
2018-08-22T11:53:55.707Z,9620
2018-08-22T11:54:55.701Z,10292
2018-08-22T11:55:55.740Z,10572
2018-08-22T11:56:55.711Z,10332
2018-08-22T11:57:55.714Z,9936
2018-08-22T11:58:55.974Z,8976
2018-08-22T11:59:55.721Z,7936
2018-08-22T12:00:55.729Z,6772
2018-08-22T12:01:56.246Z,5968
2018-08-22T12:02:55.991Z,5444
2018-08-22T12:03:55.995Z,5060
2018-08-22T12:04:55.759Z,4836
2018-08-22T12:05:55.753Z,4728
2018-08-22T12:06:55.767Z,4776
2018-08-22T12:07:56.011Z,4972
2018-08-22T12:08:56.021Z,5324
2018-08-22T12:09:56.018Z,4912
2018-08-22T12:10:56.027Z,4544
2018-08-22T12:11:55.518Z,4436
2018-08-22T12:12:56.034Z,4496
2018-08-22T12:13:55.527Z,4468
2018-08-22T12:14:55.784Z,5140
2018-08-22T12:15:55.790Z,5636
2018-08-22T12:16:55.536Z,5616
2018-08-22T12:17:55.537Z,5236
2018-08-22T12:18:56.057Z,4996
2018-08-22T12:19:55.806Z,4760
2018-08-22T12:20:55.808Z,4876
2018-08-22T12:21:56.077Z,4864
2018-08-22T12:22:56.212Z,4688
2018-08-22T12:23:55.822Z,4652
2018-08-22T12:24:55.827Z,4368
2018-08-22T12:25:55.825Z,4112
2018-08-22T12:26:56.092Z,3948
2018-08-22T12:27:56.088Z,3900
2018-08-22T12:28:56.100Z,3800
2018-08-22T12:29:55.838Z,3832
2018-08-22T12:30:56.169Z,4448
2018-08-22T12:31:56.111Z,5380
2018-08-22T12:32:56.114Z,6196
2018-08-22T12:33:55.604Z,6588
2018-08-22T12:34:55.872Z,6760
2018-08-22T12:35:56.125Z,6988
2018-08-22T12:36:56.120Z,7480
2018-08-22T12:37:56.013Z,7724
2018-08-22T12:38:55.871Z,8092
2018-08-22T12:39:55.877Z,8680
2018-08-22T12:40:56.140Z,8712
2018-08-22T12:41:55.629Z,8756
2018-08-22T12:42:56.146Z,7796
2018-08-22T12:43:55.891Z,7128
2018-08-22T12:44:56.155Z,6932
2018-08-22T12:45:56.157Z,6692
2018-08-22T12:46:55.899Z,7308
2018-08-22T12:47:56.168Z,7168
2018-08-22T12:48:55.917Z,7472
2018-08-22T12:49:56.177Z,8416
2018-08-22T12:50:55.917Z,8800
2018-08-22T12:51:55.922Z,9004
2018-08-22T12:52:55.924Z,8972
2018-08-22T12:53:56.184Z,8708
2018-08-22T12:54:55.939Z,8652
2018-08-22T12:55:56.204Z,8104
2018-08-22T12:56:55.957Z,7772
2018-08-22T12:57:55.946Z,7052
2018-08-22T12:58:56.212Z,7016
2018-08-22T12:59:56.215Z,7084
2018-08-22T13:00:55.708Z,7252
2018-08-22T13:01:55.975Z,6784
2018-08-22T13:02:56.232Z,6180
2018-08-22T13:03:56.232Z,6008
2018-08-22T13:04:56.249Z,6088
2018-08-22T13:05:55.478Z,6424
2018-08-22T13:06:55.989Z,6716
2018-08-22T13:07:56.255Z,6624
2018-08-22T13:08:56.261Z,6572
2018-08-22T13:09:56.005Z,6312
2018-08-22T13:10:56.013Z,6148
2018-08-22T13:11:56.011Z,6012
2018-08-22T13:12:56.039Z,6640
2018-08-22T13:13:56.275Z,7216
2018-08-22T13:14:56.023Z,7452
2018-08-22T13:15:56.031Z,8124
2018-08-22T13:16:56.495Z,8268
2018-08-22T13:17:56.292Z,7920
2018-08-22T13:18:56.041Z,7308
2018-08-22T13:19:56.301Z,6840
2018-08-22T13:20:56.055Z,6292
2018-08-22T13:21:56.056Z,6056
2018-08-22T13:22:56.314Z,5648
2018-08-22T13:23:56.067Z,6424
2018-08-22T13:24:56.279Z,6780
2018-08-22T13:25:56.328Z,6336
2018-08-22T13:26:56.337Z,6624
2018-08-22T13:27:56.333Z,6740
2018-08-22T13:28:56.087Z,6024
2018-08-22T13:29:56.092Z,5736
2018-08-22T13:30:56.379Z,5560
2018-08-22T13:31:56.353Z,5448
2018-08-22T13:32:56.358Z,5212
2018-08-22T13:33:56.366Z,5420
2018-08-22T13:34:55.856Z,5236
2018-08-22T13:35:56.118Z,5048
2018-08-22T13:36:56.121Z,5300
2018-08-22T13:37:56.122Z,6032
2018-08-22T13:38:56.236Z,6420
2018-08-22T13:39:56.486Z,6676
2018-08-22T13:40:56.145Z,6528
2018-08-22T13:41:56.399Z,6544
2018-08-22T13:42:55.890Z,6720
2018-08-22T13:43:56.171Z,6220